createdAt,value
2018-06-18T00:01:22.369Z,101455.86
2018-06-18T00:03:52.057Z,101457.56
2018-06-18T00:06:21.399Z,101458.88
2018-06-18T00:08:51.037Z,101462.81
2018-06-18T00:11:20.675Z,101460.20
2018-06-18T00:13:50.363Z,101463.69
2018-06-18T00:16:20.000Z,101461.47
2018-06-18T00:18:49.725Z,101463.28
2018-06-18T00:21:19.282Z,101465.05
2018-06-18T00:23:48.921Z,101467.64
2018-06-18T00:26:18.598Z,101474.17
2018-06-18T00:28:48.217Z,101479.36
2018-06-18T00:31:17.834Z,101467.60
2018-06-18T00:33:47.477Z,101459.31
2018-06-18T00:36:17.143Z,101453.20
2018-06-18T00:38:46.780Z,101443.58
2018-06-18T00:41:16.429Z,101453.64
2018-06-18T00:43:45.734Z,101454.94
2018-06-18T00:46:15.397Z,101445.33
2018-06-18T00:48:45.025Z,101441.81
2018-06-18T00:51:14.648Z,101444.43
2018-06-18T00:53:44.315Z,101439.64
2018-06-18T00:56:16.267Z,101444.91
2018-06-18T00:58:45.957Z,101440.97
2018-06-18T01:01:15.440Z,101440.52
2018-06-18T01:03:45.145Z,101442.30
2018-06-18T01:06:14.961Z,101447.97
2018-06-18T01:08:44.297Z,101438.81
2018-06-18T01:11:13.913Z,101432.66
2018-06-18T01:13:43.536Z,101423.91
2018-06-18T01:16:12.859Z,101421.75
2018-06-18T01:18:42.522Z,101416.07
2018-06-18T01:21:12.170Z,101408.20
2018-06-18T01:23:54.408Z,101416.49
2018-06-18T01:26:24.169Z,101429.17
2018-06-18T01:28:53.572Z,101430.02
2018-06-18T01:31:22.848Z,101436.16
2018-06-18T01:33:55.665Z,101432.23
2018-06-18T01:36:24.961Z,101427.02
2018-06-18T01:38:54.619Z,101429.61
2018-06-18T01:41:24.274Z,101427.41
2018-06-18T01:43:53.928Z,101423.48
2018-06-18T01:46:23.670Z,101431.38
2018-06-18T01:48:53.667Z,101428.34
2018-06-18T01:51:23.385Z,101429.64
2018-06-18T01:53:53.014Z,101430.52
2018-06-18T01:56:22.619Z,101425.27
2018-06-18T01:58:52.265Z,101424.00
2018-06-18T02:01:21.961Z,101428.38
2018-06-18T02:03:51.620Z,101430.13
2018-06-18T02:06:21.355Z,101425.75
2018-06-18T02:08:50.982Z,101425.76
2018-06-18T02:11:20.621Z,101422.27
2018-06-18T02:13:50.316Z,101424.44
2018-06-18T02:16:19.962Z,101430.58
2018-06-18T02:18:49.678Z,101427.94
2018-06-18T02:21:18.960Z,101418.30
2018-06-18T02:23:48.578Z,101421.36
2018-06-18T02:26:18.226Z,101420.94
2018-06-18T02:28:53.047Z,101420.51
2018-06-18T02:31:27.955Z,101420.94
2018-06-18T02:34:02.666Z,101411.77
2018-06-18T02:36:37.526Z,101409.14
2018-06-18T02:39:12.807Z,101409.13
2018-06-18T02:41:43.509Z,101413.95
2018-06-18T02:44:13.169Z,101411.31
2018-06-18T02:46:43.013Z,101409.13
2018-06-18T02:49:12.645Z,101409.14
2018-06-18T02:51:42.392Z,101406.94
2018-06-18T02:54:12.083Z,101416.14
2018-06-18T02:56:48.776Z,101416.57
2018-06-18T02:59:18.692Z,101413.07
2018-06-18T03:01:48.631Z,101406.06
2018-06-18T03:04:18.267Z,101403.88
2018-06-18T03:06:47.974Z,101409.15
2018-06-18T03:09:17.334Z,101413.06
2018-06-18T03:11:46.924Z,101423.11
2018-06-18T03:14:16.301Z,101420.92
2018-06-18T03:16:46.005Z,101421.38
2018-06-18T03:19:20.869Z,101419.63
2018-06-18T03:21:55.647Z,101420.08
2018-06-18T03:24:30.544Z,101420.92
2018-06-18T03:27:05.221Z,101420.51
2018-06-18T03:29:36.030Z,101427.50
2018-06-18T03:32:11.391Z,101432.30
2018-06-18T03:34:40.995Z,101425.76
2018-06-18T03:37:13.698Z,101423.58
2018-06-18T03:39:43.326Z,101425.33
2018-06-18T03:42:12.982Z,101419.20
2018-06-18T03:44:52.453Z,101423.14
2018-06-18T03:47:25.811Z,101425.31
2018-06-18T03:49:55.789Z,101423.56
2018-06-18T03:52:25.578Z,101418.77
2018-06-18T03:54:59.269Z,101422.70
2018-06-18T03:57:28.889Z,101431.89
2018-06-18T03:59:58.554Z,101421.80
2018-06-18T04:02:40.032Z,101427.93
2018-06-18T04:05:14.920Z,101428.38
2018-06-18T04:07:51.697Z,101434.50
2018-06-18T04:10:26.493Z,101437.56
2018-06-18T04:12:56.142Z,101440.64
2018-06-18T04:15:25.812Z,101440.61
2018-06-18T04:17:55.475Z,101446.31
2018-06-18T04:20:26.553Z,101444.98
2018-06-18T04:22:56.293Z,101440.19
2018-06-18T04:25:25.973Z,101438.00
2018-06-18T04:27:55.461Z,101432.73
2018-06-18T04:30:25.182Z,101439.30
2018-06-18T04:32:54.952Z,101437.10
2018-06-18T04:35:24.625Z,101440.16
2018-06-18T04:37:54.257Z,101443.70
2018-06-18T04:40:23.876Z,101438.44
2018-06-18T04:42:58.810Z,101435.35
2018-06-18T04:45:33.711Z,101445.01
2018-06-18T04:48:08.611Z,101449.82
2018-06-18T04:50:43.599Z,101448.50
2018-06-18T04:53:13.233Z,101443.23
2018-06-18T04:55:42.989Z,101431.41
2018-06-18T04:58:12.617Z,101441.47
2018-06-18T05:00:48.012Z,101440.61
2018-06-18T05:03:17.717Z,101441.89
2018-06-18T05:05:47.360Z,101448.46
2018-06-18T05:09:12.350Z,101447.14
2018-06-18T05:11:41.655Z,101445.83
2018-06-18T05:14:11.300Z,101449.75
2018-06-18T05:16:41.060Z,101445.38
2018-06-18T05:19:10.695Z,101440.97
2018-06-18T05:21:40.175Z,101453.67
2018-06-18T05:24:09.735Z,101458.47
2018-06-18T05:26:44.388Z,101455.46
2018-06-18T05:29:14.210Z,101457.17
2018-06-18T05:31:43.877Z,101460.27
2018-06-18T05:34:15.623Z,101452.36
2018-06-18T05:36:45.051Z,101457.14
2018-06-18T05:39:14.678Z,101453.55
2018-06-18T05:41:44.342Z,101453.08
2018-06-18T05:44:13.965Z,101454.81
2018-06-18T05:46:43.720Z,101453.83
2018-06-18T05:49:13.391Z,101455.20
2018-06-18T05:51:43.136Z,101458.59
2018-06-18T05:54:12.862Z,101462.44
2018-06-18T05:56:42.540Z,101461.53
2018-06-18T05:59:12.168Z,101467.40
2018-06-18T06:01:41.856Z,101466.09
2018-06-18T06:04:11.244Z,101466.52
2018-06-18T06:06:40.894Z,101460.87
2018-06-18T06:09:12.674Z,101454.84
2018-06-18T06:11:42.521Z,101456.33
2018-06-18T06:14:12.245Z,101458.55
2018-06-18T06:16:41.974Z,101470.13
2018-06-18T06:19:11.696Z,101460.43
2018-06-18T06:21:40.984Z,101462.94
2018-06-18T06:24:10.657Z,101460.30
2018-06-18T06:26:40.242Z,101460.80
2018-06-18T06:29:09.873Z,101452.20
2018-06-18T06:31:39.520Z,101457.23
2018-06-18T06:34:09.312Z,101457.86
2018-06-18T06:36:38.911Z,101456.52
2018-06-18T06:39:10.858Z,101464.31
2018-06-18T06:41:43.704Z,101469.32
2018-06-18T06:44:13.441Z,101460.90
2018-06-18T06:46:42.775Z,101471.71
2018-06-18T06:49:12.521Z,101469.83
2018-06-18T06:51:42.171Z,101470.19
2018-06-18T06:54:11.789Z,101475.14
2018-06-18T06:56:41.120Z,101471.89
2018-06-18T06:59:10.777Z,101481.25
2018-06-18T07:01:40.124Z,101485.98
2018-06-18T07:04:10.101Z,101489.17
2018-06-18T07:06:39.727Z,101489.66
2018-06-18T07:09:11.065Z,101498.77
2018-06-18T07:11:41.206Z,101498.13
2018-06-18T07:14:10.885Z,101492.13
2018-06-18T07:16:40.543Z,101489.66
2018-06-18T07:19:10.216Z,101499.45
2018-06-18T07:21:39.889Z,101494.33
2018-06-18T07:24:09.776Z,101498.23
2018-06-18T07:26:39.466Z,101486.84
2018-06-18T07:29:09.141Z,101491.39
2018-06-18T07:31:38.749Z,101493.08
2018-06-18T07:34:08.415Z,101498.22
2018-06-18T07:36:38.018Z,101499.61
2018-06-18T07:39:08.471Z,101501.96
2018-06-18T07:41:37.829Z,101503.09
2018-06-18T07:44:07.649Z,101502.72
2018-06-18T07:46:37.281Z,101507.69
2018-06-18T07:49:07.000Z,101508.08
2018-06-18T07:51:36.644Z,101519.35
2018-06-18T07:54:06.158Z,101527.25
2018-06-18T07:56:35.783Z,101516.10
2018-06-18T07:59:05.439Z,101516.56
2018-06-18T08:01:35.115Z,101506.20
2018-06-18T08:04:04.789Z,101500.09
2018-06-18T08:06:34.468Z,101493.88
2018-06-18T08:09:06.300Z,101493.72
2018-06-18T08:11:36.002Z,101495.52
2018-06-18T08:14:06.053Z,101489.62
2018-06-18T08:16:35.844Z,101483.95
2018-06-18T08:19:05.803Z,101480.42
2018-06-18T08:21:35.767Z,101492.38
2018-06-18T08:24:05.617Z,101493.35
2018-06-18T08:26:35.242Z,101497.70
2018-06-18T08:29:04.944Z,101491.13
2018-06-18T08:31:34.701Z,101491.34
2018-06-18T08:34:04.122Z,101492.34
2018-06-18T08:36:33.745Z,101494.63
2018-06-18T08:39:04.014Z,101503.64
2018-06-18T08:41:33.644Z,101507.19
2018-06-18T08:44:03.507Z,101501.95
2018-06-18T08:46:33.186Z,101502.62
2018-06-18T08:49:06.033Z,101503.98
2018-06-18T08:51:40.923Z,101500.01
2018-06-18T08:54:15.817Z,101503.16
2018-06-18T08:56:50.651Z,101492.66
2018-06-18T08:59:25.459Z,101494.92
2018-06-18T09:01:55.265Z,101495.33
2018-06-18T09:04:30.161Z,101501.66
2018-06-18T09:07:07.016Z,101487.34
2018-06-18T09:09:36.316Z,101488.48
2018-06-18T09:12:05.660Z,101492.12
2018-06-18T09:14:35.338Z,101499.55
2018-06-18T09:17:05.171Z,101491.59
2018-06-18T09:19:34.866Z,101488.96
2018-06-18T09:22:04.517Z,101491.20
2018-06-18T09:24:35.009Z,101482.45
2018-06-18T09:27:09.839Z,101489.67
2018-06-18T09:29:39.192Z,101491.20
2018-06-18T09:32:14.178Z,101482.08
2018-06-18T09:34:44.324Z,101482.48
2018-06-18T09:37:13.997Z,101480.63
2018-06-18T09:39:43.652Z,101485.14
2018-06-18T09:42:13.368Z,101491.74
2018-06-18T09:44:42.998Z,101495.70
2018-06-18T09:47:12.713Z,101493.47
2018-06-18T09:49:47.452Z,101484.58
2018-06-18T09:52:22.073Z,101473.30
2018-06-18T09:57:00.230Z,101476.77
2018-06-18T09:59:43.657Z,101472.09
2018-06-18T10:02:13.372Z,101471.66
2018-06-18T10:04:43.034Z,101476.81
2018-06-18T10:07:12.768Z,101474.95
2018-06-18T10:09:42.485Z,101473.23
2018-06-18T10:12:12.173Z,101474.86
2018-06-18T10:14:41.890Z,101471.58
2018-06-18T10:17:11.528Z,101463.74
2018-06-18T10:19:41.285Z,101469.76
2018-06-18T10:22:10.972Z,101465.83
2018-06-18T10:24:40.672Z,101474.18
2018-06-18T10:27:10.014Z,101468.09
2018-06-18T10:29:39.670Z,101474.69
2018-06-18T10:33:12.279Z,101465.37
2018-06-18T10:35:46.713Z,101470.27
2018-06-18T10:38:21.486Z,101462.93
2018-06-18T10:40:56.155Z,101457.06
2018-06-18T10:43:29.845Z,101455.89
2018-06-18T10:45:59.599Z,101461.69
2018-06-18T10:48:29.254Z,101456.30
2018-06-18T10:50:59.004Z,101458.76
2018-06-18T10:53:28.680Z,101463.10
2018-06-18T10:55:58.362Z,101457.01
2018-06-18T10:58:27.963Z,101457.13
2018-06-18T11:01:12.703Z,101461.87
2018-06-18T11:03:42.450Z,101465.76
2018-06-18T11:06:17.417Z,101463.38
2018-06-18T11:08:47.018Z,101468.67
2018-06-18T11:11:16.708Z,101462.98
2018-06-18T11:13:46.357Z,101466.77
2018-06-18T11:16:16.180Z,101465.37
2018-06-18T11:18:50.785Z,101468.55
2018-06-18T11:21:25.556Z,101469.98
2018-06-18T11:24:00.387Z,101475.53
2018-06-18T11:26:35.003Z,101471.58
2018-06-18T11:29:04.755Z,101467.36
2018-06-18T11:31:34.420Z,101471.99
2018-06-18T11:34:04.149Z,101473.56
2018-06-18T11:36:33.884Z,101470.41
2018-06-18T11:39:04.676Z,101474.84
2018-06-18T11:41:34.412Z,101469.02
2018-06-18T11:44:04.499Z,101478.09
2018-06-18T11:46:34.246Z,101477.68
2018-06-18T11:49:03.594Z,101477.03
2018-06-18T11:51:33.337Z,101475.11
2018-06-18T11:54:03.079Z,101474.06
2018-06-18T11:56:33.238Z,101474.92
2018-06-18T11:59:07.997Z,101478.93
2018-06-18T12:01:42.771Z,101471.25
2018-06-18T12:04:17.521Z,101475.11
2018-06-18T12:06:52.463Z,101475.25
2018-06-18T12:09:27.310Z,101476.23
2018-06-18T12:11:57.413Z,101481.73
2018-06-18T12:14:27.073Z,101471.41
2018-06-18T12:16:56.807Z,101478.23
2018-06-18T12:19:26.498Z,101477.77
2018-06-18T12:21:56.152Z,101479.53
2018-06-18T12:24:25.812Z,101477.83
2018-06-18T12:26:55.518Z,101482.06
2018-06-18T12:29:25.197Z,101486.50
2018-06-18T12:31:54.876Z,101482.62
2018-06-18T12:34:24.283Z,101484.50
2018-06-18T12:39:17.503Z,101489.09
2018-06-18T12:41:58.801Z,101487.95
2018-06-18T12:44:32.686Z,101498.89
2018-06-18T12:47:07.390Z,101497.55
2018-06-18T12:49:42.114Z,101492.80
2018-06-18T12:52:16.506Z,101490.20
2018-06-18T12:54:51.201Z,101487.97
2018-06-18T12:57:20.933Z,101487.66
2018-06-18T12:59:50.640Z,101487.72
2018-06-18T13:02:35.341Z,101483.05
2018-06-18T13:05:05.126Z,101483.89
2018-06-18T13:07:34.870Z,101478.04
2018-06-18T13:10:04.264Z,101471.46
2018-06-18T13:12:33.866Z,101478.93
2018-06-18T13:15:03.577Z,101485.45
2018-06-18T13:17:33.328Z,101477.63
2018-06-18T13:20:02.678Z,101480.61
2018-06-18T13:22:32.339Z,101475.72
2018-06-18T13:25:01.724Z,101471.24
2018-06-18T13:27:36.525Z,101479.25
2018-06-18T13:30:07.357Z,101482.91
2018-06-18T13:32:36.999Z,101475.13
2018-06-18T13:35:06.916Z,101474.75
2018-06-18T13:37:41.489Z,101480.28
2018-06-18T13:40:16.373Z,101481.86
2018-06-18T13:42:51.190Z,101485.19
2018-06-18T13:45:25.931Z,101485.89
2018-06-18T13:48:00.872Z,101489.28
2018-06-18T13:50:30.537Z,101489.73
2018-06-18T13:53:00.174Z,101500.50
2018-06-18T13:55:29.790Z,101497.56
2018-06-18T13:57:59.602Z,101494.16
2018-06-18T14:00:29.442Z,101498.39
2018-06-18T14:02:58.784Z,101503.38
2018-06-18T14:05:28.522Z,101503.59
2018-06-18T14:07:58.249Z,101506.06
2018-06-18T14:10:27.938Z,101509.81
2018-06-18T14:12:57.613Z,101508.74
2018-06-18T14:15:27.339Z,101507.16
2018-06-18T14:17:57.109Z,101508.41
2018-06-18T14:20:27.717Z,101511.30
2018-06-18T14:22:57.368Z,101506.06
2018-06-18T14:25:27.079Z,101502.77
2018-06-18T14:27:56.758Z,101500.88
2018-06-18T14:30:31.671Z,101498.70
2018-06-18T14:33:06.380Z,101498.97
2018-06-18T14:35:41.266Z,101500.42
2018-06-18T14:38:16.165Z,101493.23
2018-06-18T14:40:45.812Z,101492.81
2018-06-18T14:43:15.075Z,101481.07
2018-06-18T14:45:44.759Z,101481.80
2018-06-18T14:48:14.388Z,101479.88
2018-06-18T14:50:44.070Z,101477.02
2018-06-18T14:53:13.773Z,101470.92
2018-06-18T14:55:45.991Z,101474.14
2018-06-18T14:58:15.665Z,101469.84
2018-06-18T15:00:45.344Z,101468.79
2018-06-18T15:03:15.030Z,101461.80
2018-06-18T15:05:44.852Z,101465.20
2018-06-18T15:08:14.553Z,101469.89
2018-06-18T15:10:49.308Z,101463.13
2018-06-18T15:13:18.997Z,101469.09
2018-06-18T15:15:53.795Z,101468.53
2018-06-18T15:18:23.188Z,101465.18
2018-06-18T15:20:56.256Z,101469.16
2018-06-18T15:23:25.960Z,101465.78
2018-06-18T15:25:55.648Z,101460.82
2018-06-18T15:28:25.341Z,101457.48
2018-06-18T15:30:54.997Z,101454.34
2018-06-18T15:33:24.633Z,101452.51
2018-06-18T15:35:54.553Z,101459.47
2018-06-18T15:38:24.333Z,101462.36
2018-06-18T15:40:53.968Z,101460.27
2018-06-18T15:43:23.621Z,101455.26
2018-06-18T15:45:53.277Z,101456.22
2018-06-18T15:48:22.974Z,101445.23
2018-06-18T15:50:52.606Z,101447.91
2018-06-18T15:53:22.363Z,101443.19
2018-06-18T15:55:52.029Z,101437.73
2018-06-18T15:58:21.667Z,101438.48
2018-06-18T16:00:51.456Z,101430.41
2018-06-18T16:03:21.184Z,101424.73
2018-06-18T16:05:50.910Z,101425.22
2018-06-18T16:08:20.570Z,101421.07
2018-06-18T16:10:50.288Z,101413.59
2018-06-18T16:13:19.984Z,101413.51
2018-06-18T16:15:49.299Z,101420.41
2018-06-18T16:18:18.990Z,101421.45
2018-06-18T16:20:48.738Z,101421.08
2018-06-18T16:23:18.424Z,101415.92
2018-06-18T16:25:47.789Z,101410.77
2018-06-18T16:28:17.552Z,101416.30
2018-06-18T16:30:47.223Z,101420.14
2018-06-18T16:33:17.031Z,101419.59
2018-06-18T16:35:46.760Z,101424.21
2018-06-18T16:38:16.433Z,101418.50
2018-06-18T16:40:46.164Z,101418.29
2018-06-18T16:43:15.833Z,101418.88
2018-06-18T16:45:45.509Z,101413.59
2018-06-18T16:48:15.272Z,101415.53
2018-06-18T16:50:44.980Z,101408.37
2018-06-18T16:53:14.653Z,101405.31
2018-06-18T16:55:44.384Z,101404.28
2018-06-18T16:58:14.037Z,101399.63
2018-06-18T17:00:43.821Z,101402.77
2018-06-18T17:03:13.552Z,101414.13
2018-06-18T17:05:43.225Z,101408.74
2018-06-18T17:08:12.917Z,101414.22
2018-06-18T17:10:42.723Z,101421.19
2018-06-18T17:13:12.386Z,101424.61
2018-06-18T17:15:42.062Z,101421.69
2018-06-18T17:18:11.765Z,101420.44
2018-06-18T17:20:41.637Z,101423.09
2018-06-18T17:23:11.011Z,101417.34
2018-06-18T17:25:40.773Z,101420.25
2018-06-18T17:28:10.598Z,101425.30
2018-06-18T17:30:40.335Z,101433.02
2018-06-18T17:33:10.249Z,101423.49
2018-06-18T17:35:39.942Z,101415.02
2018-06-18T17:38:09.748Z,101415.78
2018-06-18T17:40:39.518Z,101416.86
2018-06-18T17:43:09.246Z,101410.57
2018-06-18T17:45:39.018Z,101412.98
2018-06-18T17:48:08.723Z,101412.77
2018-06-18T17:50:38.413Z,101402.92
2018-06-18T17:53:08.109Z,101407.56
2018-06-18T17:55:37.497Z,101409.97
2018-06-18T17:58:07.495Z,101403.78
2018-06-18T18:00:37.414Z,101403.34
2018-06-18T18:03:07.235Z,101407.88
2018-06-18T18:05:36.950Z,101409.25
2018-06-18T18:08:06.877Z,101406.27
2018-06-18T18:10:36.611Z,101414.28
2018-06-18T18:13:06.267Z,101426.09
2018-06-18T18:15:35.789Z,101419.11
2018-06-18T18:18:05.736Z,101425.88
2018-06-18T18:20:35.413Z,101424.45
2018-06-18T18:23:05.162Z,101423.11
2018-06-18T18:25:34.836Z,101428.49
2018-06-18T18:28:04.524Z,101430.02
2018-06-18T18:30:34.243Z,101437.53
2018-06-18T18:33:04.024Z,101426.89
2018-06-18T18:35:34.352Z,101429.79
2018-06-18T18:38:04.639Z,101429.79
2018-06-18T18:40:34.494Z,101429.55
2018-06-18T18:43:04.273Z,101430.13
2018-06-18T18:45:33.941Z,101422.60
2018-06-18T18:48:03.640Z,101433.98
2018-06-18T18:50:33.065Z,101428.98
2018-06-18T18:53:02.725Z,101423.22
2018-06-18T18:55:51.584Z,101421.20
2018-06-18T18:59:35.568Z,101429.35
2018-06-18T19:02:05.926Z,101429.13
2018-06-18T19:05:01.134Z,101429.68
2018-06-18T19:07:36.726Z,101441.58
2018-06-18T19:10:16.761Z,101442.51
2018-06-18T19:12:46.544Z,101444.98
2018-06-18T19:15:16.233Z,101453.80
2018-06-18T19:17:46.068Z,101450.80
2018-06-18T19:20:23.574Z,101445.19
2018-06-18T19:22:52.896Z,101438.51
2018-06-18T19:25:22.689Z,101439.67
2018-06-18T19:27:52.077Z,101438.89
2018-06-18T19:30:21.830Z,101451.40
2018-06-18T19:32:53.920Z,101447.39
2018-06-18T19:35:23.714Z,101450.22
2018-06-18T19:37:54.565Z,101449.98
2018-06-18T19:40:24.452Z,101450.81
2018-06-18T19:42:53.854Z,101453.00
2018-06-18T19:45:24.606Z,101449.04
2018-06-18T19:47:59.802Z,101445.05
2018-06-18T19:50:29.514Z,101447.27
2018-06-18T19:52:59.430Z,101449.88
2018-06-18T19:55:32.334Z,101454.08
2018-06-18T19:58:02.274Z,101460.55
2018-06-18T20:00:38.050Z,101460.69
2018-06-18T20:03:07.835Z,101463.02
2018-06-18T20:05:37.281Z,101473.19
2018-06-18T20:08:12.965Z,101474.66
2018-06-18T20:10:42.741Z,101479.05
2018-06-18T20:13:12.457Z,101484.74
2018-06-18T20:15:42.213Z,101483.80
2018-06-18T20:18:12.054Z,101483.86
2018-06-18T20:20:41.398Z,101491.45
2018-06-18T20:23:15.405Z,101498.48
2018-06-18T20:25:50.806Z,101508.08
2018-06-18T20:28:20.667Z,101502.41
2018-06-18T20:30:50.373Z,101507.80
2018-06-18T20:33:24.540Z,101501.70
2018-06-18T20:35:59.348Z,101506.91
2018-06-18T20:38:29.133Z,101511.52
2018-06-18T20:40:58.952Z,101515.09
2018-06-18T20:43:34.971Z,101525.20
2018-06-18T20:46:04.713Z,101527.88
2018-06-18T20:48:34.376Z,101531.48
2018-06-18T20:51:04.157Z,101530.64
2018-06-18T20:53:33.872Z,101538.69
2018-06-18T20:56:03.532Z,101536.58
2018-06-18T20:58:33.245Z,101537.80
2018-06-18T21:01:02.939Z,101547.48
2018-06-18T21:03:32.636Z,101552.31
2018-06-18T21:06:02.526Z,101550.92
2018-06-18T21:08:32.189Z,101551.77
2018-06-18T21:11:01.970Z,101550.41
2018-06-18T21:13:31.585Z,101559.15
2018-06-18T21:16:01.312Z,101556.21
2018-06-18T21:18:31.055Z,101560.64
2018-06-18T21:21:00.769Z,101566.38
2018-06-18T21:23:30.500Z,101566.89
2018-06-18T21:25:59.956Z,101566.94
2018-06-18T21:28:29.566Z,101571.25
2018-06-18T21:30:59.260Z,101565.98
2018-06-18T21:33:29.157Z,101576.06
2018-06-18T21:35:58.841Z,101567.73
2018-06-18T21:38:28.486Z,101562.06
2018-06-18T21:40:58.418Z,101571.66
2018-06-18T21:43:28.532Z,101571.68
2018-06-18T21:45:58.306Z,101573.03
2018-06-18T21:48:27.994Z,101578.70
2018-06-18T21:50:57.653Z,101580.46
2018-06-18T21:53:26.975Z,101582.68
2018-06-18T21:55:56.653Z,101586.62
2018-06-18T21:58:26.588Z,101576.53
2018-06-18T22:00:55.971Z,101580.48
2018-06-18T22:03:25.705Z,101585.32
2018-06-18T22:05:55.083Z,101579.14
2018-06-18T22:08:27.050Z,101571.72
2018-06-18T22:10:56.960Z,101573.06
2018-06-18T22:13:26.959Z,101578.77
2018-06-18T22:15:56.682Z,101579.66
2018-06-18T22:18:26.337Z,101574.40
2018-06-18T22:20:56.201Z,101579.16
2018-06-18T22:23:25.929Z,101587.04
2018-06-18T22:25:55.638Z,101582.21
2018-06-18T22:28:34.148Z,101587.01
2018-06-18T22:31:04.564Z,101589.52
2018-06-18T22:33:34.674Z,101591.34
2018-06-18T22:36:04.450Z,101586.97
2018-06-18T22:38:34.292Z,101588.28
2018-06-18T22:41:03.981Z,101582.16
2018-06-18T22:43:33.707Z,101591.00
2018-06-18T22:46:03.081Z,101592.80
2018-06-18T22:48:32.809Z,101591.95
2018-06-18T22:51:02.626Z,101599.89
2018-06-18T22:53:32.337Z,101593.79
2018-06-18T22:56:02.105Z,101594.67
2018-06-18T22:58:31.824Z,101605.64
2018-06-18T23:01:02.310Z,101599.52
2018-06-18T23:03:31.998Z,101602.58
2018-06-18T23:06:01.757Z,101610.86
2018-06-18T23:08:31.476Z,101605.61
2018-06-18T23:11:01.202Z,101604.28
2018-06-18T23:13:34.181Z,101608.66
2018-06-18T23:16:05.965Z,101609.52
2018-06-18T23:18:35.752Z,101603.34
2018-06-18T23:21:05.533Z,101601.11
2018-06-18T23:23:35.353Z,101604.61
2018-06-18T23:26:05.204Z,101608.93
2018-06-18T23:28:50.321Z,101601.84
2018-06-18T23:31:19.964Z,101607.91
2018-06-18T23:33:49.278Z,101608.30
2018-06-18T23:36:19.093Z,101612.24
2018-06-18T23:38:49.069Z,101616.11
2018-06-18T23:41:19.877Z,101614.30
2018-06-18T23:43:49.619Z,101615.12
2018-06-18T23:46:19.341Z,101611.60
2018-06-18T23:48:49.152Z,101619.87
2018-06-18T23:51:18.866Z,101618.08
2018-06-18T23:53:48.549Z,101613.59
2018-06-18T23:56:18.204Z,101617.94
2018-06-18T23:58:47.930Z,101614.44
